sensor_id;sensor_type;location;lat;lon;timestamp;P1;durP1;ratioP1;P2;durP2;ratioP2
6412;SDS011;3239;48.714;9.472;2023-05-10T00:02:09;1.20;;;1.10;;
6412;SDS011;3239;48.714;9.472;2023-05-10T00:04:35;1.87;;;1.40;;
6412;SDS011;3239;48.714;9.472;2023-05-10T00:07:00;2.60;;;1.40;;
6412;SDS011;3239;48.714;9.472;2023-05-10T00:09:26;1.70;;;1.50;;
6412;SDS011;3239;48.714;9.472;2023-05-10T00:11:52;3.80;;;1.20;;
6412;SDS011;3239;48.714;9.472;2023-05-10T00:14:18;7.23;;;2.93;;
6412;SDS011;3239;48.714;9.472;2023-05-10T00:16:44;2.00;;;1.40;;
6412;SDS011;3239;48.714;9.472;2023-05-10T00:19:09;4.30;;;1.67;;
6412;SDS011;3239;48.714;9.472;2023-05-10T00:21:35;2.27;;;1.73;;
6412;SDS011;3239;48.714;9.472;2023-05-10T00:24:01;5.60;;;1.80;;
6412;SDS011;3239;48.714;9.472;2023-05-10T00:26:27;2.93;;;1.50;;
6412;SDS011;3239;48.714;9.472;2023-05-10T00:28:53;2.50;;;1.37;;
6412;SDS011;3239;48.714;9.472;2023-05-10T00:31:18;1.77;;;1.53;;
6412;SDS011;3239;48.714;9.472;2023-05-10T00:33:44;1.70;;;1.20;;
6412;SDS011;3239;48.714;9.472;2023-05-10T00:36:10;1.70;;;1.50;;
6412;SDS011;3239;48.714;9.472;2023-05-10T00:38:36;2.87;;;1.83;;
6412;SDS011;3239;48.714;9.472;2023-05-10T00:41:01;3.20;;;1.70;;
6412;SDS011;3239;48.714;9.472;2023-05-10T00:43:27;2.63;;;1.47;;
6412;SDS011;3239;48.714;9.472;2023-05-10T00:45:53;2.00;;;1.47;;
6412;SDS011;3239;48.714;9.472;2023-05-10T00:48:19;4.30;;;1.90;;
6412;SDS011;3239;48.714;9.472;2023-05-10T00:50:45;3.30;;;1.60;;
6412;SDS011;3239;48.714;9.472;2023-05-10T00:53:12;1.60;;;1.10;;
6412;SDS011;3239;48.714;9.472;2023-05-10T00:55:37;2.67;;;0.87;;
6412;SDS011;3239;48.714;9.472;2023-05-10T00:58:04;1.20;;;0.80;;
6412;SDS011;3239;48.714;9.472;2023-05-10T01:00:30;1.20;;;0.50;;
6412;SDS011;3239;48.714;9.472;2023-05-10T01:02:57;3.00;;;0.70;;
6412;SDS011;3239;48.714;9.472;2023-05-10T01:05:23;7.00;;;0.50;;
6412;SDS011;3239;48.714;9.472;2023-05-10T01:07:49;1.77;;;0.60;;
6412;SDS011;3239;48.714;9.472;2023-05-10T01:10:15;2.70;;;0.40;;
6412;SDS011;3239;48.714;9.472;2023-05-10T01:12:42;0.90;;;0.37;;
6412;SDS011;3239;48.714;9.472;2023-05-10T01:15:10;2.90;;;0.50;;
6412;SDS011;3239;48.714;9.472;2023-05-10T01:17:38;0.80;;;0.37;;
6412;SDS011;3239;48.714;9.472;2023-05-10T01:20:06;0.60;;;0.40;;
6412;SDS011;3239;48.714;9.472;2023-05-10T01:28:57;1.87;;;0.43;;
6412;SDS011;3239;48.714;9.472;2023-05-10T01:41:11;2.73;;;0.60;;
6412;SDS011;3239;48.714;9.472;2023-05-10T01:44:09;1.90;;;0.60;;
6412;SDS011;3239;48.714;9.472;2023-05-10T01:46:39;1.00;;;0.50;;
6412;SDS011;3239;48.714;9.472;2023-05-10T01:49:09;1.80;;;0.40;;
6412;SDS011;3239;48.714;9.472;2023-05-10T01:51:45;2.70;;;0.40;;
6412;SDS011;3239;48.714;9.472;2023-05-10T01:54:17;1.43;;;0.40;;
6412;SDS011;3239;48.714;9.472;2023-05-10T01:56:47;1.40;;;0.40;;
6412;SDS011;3239;48.714;9.472;2023-05-10T01:59:20;2.60;;;0.47;;
6412;SDS011;3239;48.714;9.472;2023-05-10T02:01:47;0.80;;;0.30;;
6412;SDS011;3239;48.714;9.472;2023-05-10T02:04:15;2.00;;;0.50;;
6412;SDS011;3239;48.714;9.472;2023-05-10T02:06:42;1.17;;;0.40;;
6412;SDS011;3239;48.714;9.472;2023-05-10T02:09:10;2.93;;;0.40;;
6412;SDS011;3239;48.714;9.472;2023-05-10T02:11:39;1.17;;;0.40;;
6412;SDS011;3239;48.714;9.472;2023-05-10T02:14:08;1.10;;;0.40;;
6412;SDS011;3239;48.714;9.472;2023-05-10T02:16:36;0.70;;;0.40;;
6412;SDS011;3239;48.714;9.472;2023-05-10T02:19:02;0.80;;;0.40;;
6412;SDS011;3239;48.714;9.472;2023-05-10T02:21:29;1.03;;;0.40;;
6412;SDS011;3239;48.714;9.472;2023-05-10T02:23:57;1.57;;;0.40;;
6412;SDS011;3239;48.714;9.472;2023-05-10T02:26:24;1.70;;;0.47;;
6412;SDS011;3239;48.714;9.472;2023-05-10T02:28:51;3.87;;;0.50;;
6412;SDS011;3239;48.714;9.472;2023-05-10T02:31:19;0.70;;;0.30;;
6412;SDS011;3239;48.714;9.472;2023-05-10T02:33:46;1.77;;;0.40;;
6412;SDS011;3239;48.714;9.472;2023-05-10T02:36:13;0.80;;;0.40;;
6412;SDS011;3239;48.714;9.472;2023-05-10T02:38:41;1.97;;;0.40;;
6412;SDS011;3239;48.714;9.472;2023-05-10T02:41:09;0.80;;;0.40;;
6412;SDS011;3239;48.714;9.472;2023-05-10T02:43:36;1.60;;;0.40;;
6412;SDS011;3239;48.714;9.472;2023-05-10T02:46:05;1.47;;;0.47;;
6412;SDS011;3239;48.714;9.472;2023-05-10T02:48:30;1.40;;;0.50;;
6412;SDS011;3239;48.714;9.472;2023-05-10T02:50:59;0.70;;;0.40;;
6412;SDS011;3239;48.714;9.472;2023-05-10T02:53:31;1.80;;;0.50;;
6412;SDS011;3239;48.714;9.472;2023-05-10T02:56:00;3.93;;;0.50;;
6412;SDS011;3239;48.714;9.472;2023-05-10T02:58:31;1.07;;;0.60;;
6412;SDS011;3239;48.714;9.472;2023-05-10T03:00:58;1.47;;;0.60;;
6412;SDS011;3239;48.714;9.472;2023-05-10T03:03:25;1.33;;;0.50;;
6412;SDS011;3239;48.714;9.472;2023-05-10T03:05:51;4.33;;;0.50;;
6412;SDS011;3239;48.714;9.472;2023-05-10T03:08:19;2.73;;;0.67;;
6412;SDS011;3239;48.714;9.472;2023-05-10T03:10:47;1.57;;;0.50;;
6412;SDS011;3239;48.714;9.472;2023-05-10T03:13:39;2.27;;;0.60;;
6412;SDS011;3239;48.714;9.472;2023-05-10T03:16:29;4.70;;;0.70;;
6412;SDS011;3239;48.714;9.472;2023-05-10T03:19:27;1.43;;;0.60;;
6412;SDS011;3239;48.714;9.472;2023-05-10T03:22:12;28.37;;;1.13;;
6412;SDS011;3239;48.714;9.472;2023-05-10T03:24:41;2.57;;;0.70;;
6412;SDS011;3239;48.714;9.472;2023-05-10T03:27:08;1.20;;;0.60;;
6412;SDS011;3239;48.714;9.472;2023-05-10T03:29:35;7.73;;;0.70;;
6412;SDS011;3239;48.714;9.472;2023-05-10T03:32:03;1.00;;;0.43;;
6412;SDS011;3239;48.714;9.472;2023-05-10T03:34:30;1.33;;;0.50;;
6412;SDS011;3239;48.714;9.472;2023-05-10T03:36:56;1.30;;;0.43;;
6412;SDS011;3239;48.714;9.472;2023-05-10T03:39:22;1.83;;;0.60;;
6412;SDS011;3239;48.714;9.472;2023-05-10T03:41:48;1.90;;;0.63;;
6412;SDS011;3239;48.714;9.472;2023-05-10T03:44:13;2.47;;;0.50;;
6412;SDS011;3239;48.714;9.472;2023-05-10T03:46:39;4.33;;;0.60;;
6412;SDS011;3239;48.714;9.472;2023-05-10T03:49:05;1.17;;;0.50;;
6412;SDS011;3239;48.714;9.472;2023-05-10T03:51:30;3.20;;;0.50;;
6412;SDS011;3239;48.714;9.472;2023-05-10T03:53:56;2.50;;;0.60;;
6412;SDS011;3239;48.714;9.472;2023-05-10T03:56:22;1.23;;;0.40;;
6412;SDS011;3239;48.714;9.472;2023-05-10T03:58:48;1.70;;;0.57;;
6412;SDS011;3239;48.714;9.472;2023-05-10T04:01:13;4.23;;;0.77;;
6412;SDS011;3239;48.714;9.472;2023-05-10T04:03:39;5.37;;;0.70;;
6412;SDS011;3239;48.714;9.472;2023-05-10T04:06:05;1.87;;;0.60;;
6412;SDS011;3239;48.714;9.472;2023-05-10T04:08:33;1.87;;;0.50;;
6412;SDS011;3239;48.714;9.472;2023-05-10T04:11:08;4.70;;;1.10;;
6412;SDS011;3239;48.714;9.472;2023-05-10T04:13:36;1.37;;;0.50;;
6412;SDS011;3239;48.714;9.472;2023-05-10T04:16:03;1.80;;;0.60;;
6412;SDS011;3239;48.714;9.472;2023-05-10T04:18:29;1.00;;;0.50;;
6412;SDS011;3239;48.714;9.472;2023-05-10T04:20:55;1.37;;;0.50;;
6412;SDS011;3239;48.714;9.472;2023-05-10T04:23:21;8.40;;;0.70;;
6412;SDS011;3239;48.714;9.472;2023-05-10T04:25:46;0.90;;;0.40;;
6412;SDS011;3239;48.714;9.472;2023-05-10T04:28:12;1.30;;;0.60;;
6412;SDS011;3239;48.714;9.472;2023-05-10T04:30:38;3.10;;;0.60;;
6412;SDS011;3239;48.714;9.472;2023-05-10T04:33:04;1.90;;;0.57;;
6412;SDS011;3239;48.714;9.472;2023-05-10T04:35:29;1.23;;;0.70;;
6412;SDS011;3239;48.714;9.472;2023-05-10T04:37:55;1.23;;;0.63;;
6412;SDS011;3239;48.714;9.472;2023-05-10T04:40:21;3.00;;;0.90;;
6412;SDS011;3239;48.714;9.472;2023-05-10T04:42:47;1.10;;;0.70;;
6412;SDS011;3239;48.714;9.472;2023-05-10T04:45:13;2.40;;;0.77;;
6412;SDS011;3239;48.714;9.472;2023-05-10T04:47:41;8.00;;;1.20;;
6412;SDS011;3239;48.714;9.472;2023-05-10T04:50:07;2.60;;;0.80;;
6412;SDS011;3239;48.714;9.472;2023-05-10T04:52:33;1.47;;;0.83;;
6412;SDS011;3239;48.714;9.472;2023-05-10T04:54:58;2.20;;;0.90;;
6412;SDS011;3239;48.714;9.472;2023-05-10T04:57:24;1.10;;;0.70;;
6412;SDS011;3239;48.714;9.472;2023-05-10T04:59:50;1.40;;;0.70;;
6412;SDS011;3239;48.714;9.472;2023-05-10T05:02:16;2.43;;;0.90;;
6412;SDS011;3239;48.714;9.472;2023-05-10T05:04:41;1.70;;;1.07;;
6412;SDS011;3239;48.714;9.472;2023-05-10T05:07:07;1.40;;;0.80;;
6412;SDS011;3239;48.714;9.472;2023-05-10T05:09:33;3.73;;;1.20;;
6412;SDS011;3239;48.714;9.472;2023-05-10T05:11:59;1.87;;;0.80;;
6412;SDS011;3239;48.714;9.472;2023-05-10T05:14:25;1.00;;;0.80;;
6412;SDS011;3239;48.714;9.472;2023-05-10T05:16:51;1.53;;;0.90;;
6412;SDS011;3239;48.714;9.472;2023-05-10T05:19:17;2.90;;;0.80;;
6412;SDS011;3239;48.714;9.472;2023-05-10T05:21:43;2.80;;;1.00;;
6412;SDS011;3239;48.714;9.472;2023-05-10T05:24:09;1.30;;;0.70;;
6412;SDS011;3239;48.714;9.472;2023-05-10T05:26:37;1.03;;;0.70;;
6412;SDS011;3239;48.714;9.472;2023-05-10T05:29:03;1.20;;;0.70;;
6412;SDS011;3239;48.714;9.472;2023-05-10T05:31:29;1.97;;;0.67;;
6412;SDS011;3239;48.714;9.472;2023-05-10T05:33:55;4.70;;;0.87;;
6412;SDS011;3239;48.714;9.472;2023-05-10T05:36:21;1.93;;;0.70;;
6412;SDS011;3239;48.714;9.472;2023-05-10T05:38:46;2.80;;;0.57;;
6412;SDS011;3239;48.714;9.472;2023-05-10T05:41:12;1.50;;;0.77;;
6412;SDS011;3239;48.714;9.472;2023-05-10T05:43:38;1.67;;;0.60;;
6412;SDS011;3239;48.714;9.472;2023-05-10T05:46:04;7.77;;;0.80;;
6412;SDS011;3239;48.714;9.472;2023-05-10T05:48:30;4.83;;;1.27;;
6412;SDS011;3239;48.714;9.472;2023-05-10T05:50:56;1.83;;;0.70;;
6412;SDS011;3239;48.714;9.472;2023-05-10T05:53:22;1.10;;;0.60;;
6412;SDS011;3239;48.714;9.472;2023-05-10T05:55:55;1.47;;;0.63;;
6412;SDS011;3239;48.714;9.472;2023-05-10T05:58:23;1.50;;;0.70;;
6412;SDS011;3239;48.714;9.472;2023-05-10T06:00:50;36.27;;;2.60;;
6412;SDS011;3239;48.714;9.472;2023-05-10T06:03:19;2.30;;;0.73;;
6412;SDS011;3239;48.714;9.472;2023-05-10T06:05:46;1.87;;;0.70;;
6412;SDS011;3239;48.714;9.472;2023-05-10T06:08:12;2.60;;;0.80;;
6412;SDS011;3239;48.714;9.472;2023-05-10T06:10:38;6.83;;;1.00;;
6412;SDS011;3239;48.714;9.472;2023-05-10T06:13:03;3.27;;;0.80;;
6412;SDS011;3239;48.714;9.472;2023-05-10T06:15:29;2.17;;;0.90;;
6412;SDS011;3239;48.714;9.472;2023-05-10T06:17:55;3.83;;;0.90;;
6412;SDS011;3239;48.714;9.472;2023-05-10T06:20:21;1.50;;;0.70;;
6412;SDS011;3239;48.714;9.472;2023-05-10T06:22:46;2.47;;;1.00;;
6412;SDS011;3239;48.714;9.472;2023-05-10T06:25:12;6.27;;;1.10;;
6412;SDS011;3239;48.714;9.472;2023-05-10T06:27:39;3.83;;;1.10;;
6412;SDS011;3239;48.714;9.472;2023-05-10T06:30:07;4.50;;;0.90;;
6412;SDS011;3239;48.714;9.472;2023-05-10T06:32:33;3.67;;;1.07;;
6412;SDS011;3239;48.714;9.472;2023-05-10T06:34:59;1.17;;;0.90;;
6412;SDS011;3239;48.714;9.472;2023-05-10T06:37:25;4.90;;;1.10;;
6412;SDS011;3239;48.714;9.472;2023-05-10T06:39:51;1.20;;;1.00;;
6412;SDS011;3239;48.714;9.472;2023-05-10T06:42:17;4.67;;;0.97;;
6412;SDS011;3239;48.714;9.472;2023-05-10T06:44:42;2.60;;;1.00;;
6412;SDS011;3239;48.714;9.472;2023-05-10T06:47:08;3.70;;;1.17;;
6412;SDS011;3239;48.714;9.472;2023-05-10T06:49:34;1.97;;;1.03;;
6412;SDS011;3239;48.714;9.472;2023-05-10T06:52:00;2.90;;;1.00;;
6412;SDS011;3239;48.714;9.472;2023-05-10T06:54:26;1.47;;;0.97;;
6412;SDS011;3239;48.714;9.472;2023-05-10T06:56:53;2.20;;;0.80;;
6412;SDS011;3239;48.714;9.472;2023-05-10T06:59:18;4.37;;;0.90;;
6412;SDS011;3239;48.714;9.472;2023-05-10T07:01:46;3.67;;;1.07;;
6412;SDS011;3239;48.714;9.472;2023-05-10T07:04:12;2.97;;;1.77;;
6412;SDS011;3239;48.714;9.472;2023-05-10T07:06:38;5.80;;;1.07;;
6412;SDS011;3239;48.714;9.472;2023-05-10T07:09:04;5.97;;;1.77;;
6412;SDS011;3239;48.714;9.472;2023-05-10T07:11:30;4.90;;;1.50;;
6412;SDS011;3239;48.714;9.472;2023-05-10T07:13:55;4.83;;;1.30;;
6412;SDS011;3239;48.714;9.472;2023-05-10T07:16:21;2.70;;;1.00;;
6412;SDS011;3239;48.714;9.472;2023-05-10T07:18:47;2.83;;;1.13;;
6412;SDS011;3239;48.714;9.472;2023-05-10T07:21:13;1.80;;;1.20;;
6412;SDS011;3239;48.714;9.472;2023-05-10T07:23:38;2.60;;;1.00;;
6412;SDS011;3239;48.714;9.472;2023-05-10T07:26:04;5.23;;;1.23;;
6412;SDS011;3239;48.714;9.472;2023-05-10T07:28:30;4.13;;;1.30;;
6412;SDS011;3239;48.714;9.472;2023-05-10T07:30:55;3.53;;;1.10;;
6412;SDS011;3239;48.714;9.472;2023-05-10T07:33:21;2.90;;;1.10;;
6412;SDS011;3239;48.714;9.472;2023-05-10T07:35:47;1.73;;;1.07;;
6412;SDS011;3239;48.714;9.472;2023-05-10T07:38:13;2.80;;;1.40;;
6412;SDS011;3239;48.714;9.472;2023-05-10T07:40:39;1.40;;;0.80;;
6412;SDS011;3239;48.714;9.472;2023-05-10T07:43:05;1.53;;;1.00;;
6412;SDS011;3239;48.714;9.472;2023-05-10T07:45:31;16.23;;;1.70;;
6412;SDS011;3239;48.714;9.472;2023-05-10T07:47:57;2.13;;;1.20;;
6412;SDS011;3239;48.714;9.472;2023-05-10T07:50:23;2.13;;;0.90;;
6412;SDS011;3239;48.714;9.472;2023-05-10T07:52:49;1.00;;;0.80;;
6412;SDS011;3239;48.714;9.472;2023-05-10T07:55:15;1.30;;;0.80;;
6412;SDS011;3239;48.714;9.472;2023-05-10T07:57:41;1.57;;;1.20;;
6412;SDS011;3239;48.714;9.472;2023-05-10T08:00:07;1.50;;;1.00;;
6412;SDS011;3239;48.714;9.472;2023-05-10T08:02:34;1.37;;;0.80;;
6412;SDS011;3239;48.714;9.472;2023-05-10T08:05:00;1.57;;;0.80;;
6412;SDS011;3239;48.714;9.472;2023-05-10T08:07:26;4.20;;;1.30;;
6412;SDS011;3239;48.714;9.472;2023-05-10T08:09:52;2.43;;;1.23;;
6412;SDS011;3239;48.714;9.472;2023-05-10T08:12:18;1.80;;;1.10;;
6412;SDS011;3239;48.714;9.472;2023-05-10T08:14:44;3.37;;;1.00;;
6412;SDS011;3239;48.714;9.472;2023-05-10T08:17:09;2.97;;;1.17;;
6412;SDS011;3239;48.714;9.472;2023-05-10T08:19:35;4.10;;;1.27;;
6412;SDS011;3239;48.714;9.472;2023-05-10T08:22:01;2.33;;;1.07;;
6412;SDS011;3239;48.714;9.472;2023-05-10T08:24:27;3.90;;;1.00;;
6412;SDS011;3239;48.714;9.472;2023-05-10T08:26:52;4.90;;;0.80;;
6412;SDS011;3239;48.714;9.472;2023-05-10T08:29:18;4.13;;;1.20;;
6412;SDS011;3239;48.714;9.472;2023-05-10T08:31:44;2.53;;;0.70;;
6412;SDS011;3239;48.714;9.472;2023-05-10T08:34:10;3.33;;;0.67;;
6412;SDS011;3239;48.714;9.472;2023-05-10T08:36:35;3.70;;;0.70;;
6412;SDS011;3239;48.714;9.472;2023-05-10T08:39:01;1.93;;;0.70;;
6412;SDS011;3239;48.714;9.472;2023-05-10T08:41:27;3.67;;;0.90;;
6412;SDS011;3239;48.714;9.472;2023-05-10T08:43:55;6.90;;;1.10;;
6412;SDS011;3239;48.714;9.472;2023-05-10T08:46:21;1.50;;;0.73;;
6412;SDS011;3239;48.714;9.472;2023-05-10T08:48:49;1.10;;;0.63;;
6412;SDS011;3239;48.714;9.472;2023-05-10T08:51:18;5.20;;;0.60;;
6412;SDS011;3239;48.714;9.472;2023-05-10T08:53:48;7.63;;;0.90;;
6412;SDS011;3239;48.714;9.472;2023-05-10T08:56:15;5.33;;;0.80;;
6412;SDS011;3239;48.714;9.472;2023-05-10T08:58:42;1.20;;;0.77;;
6412;SDS011;3239;48.714;9.472;2023-05-10T09:01:08;3.20;;;0.70;;
6412;SDS011;3239;48.714;9.472;2023-05-10T09:03:37;2.60;;;1.43;;
6412;SDS011;3239;48.714;9.472;2023-05-10T09:06:04;1.47;;;0.80;;
6412;SDS011;3239;48.714;9.472;2023-05-10T09:08:30;2.50;;;0.60;;
6412;SDS011;3239;48.714;9.472;2023-05-10T09:10:56;2.20;;;0.63;;
6412;SDS011;3239;48.714;9.472;2023-05-10T09:13:23;2.20;;;0.70;;
6412;SDS011;3239;48.714;9.472;2023-05-10T09:15:49;1.37;;;0.77;;
6412;SDS011;3239;48.714;9.472;2023-05-10T09:18:16;1.70;;;0.73;;
6412;SDS011;3239;48.714;9.472;2023-05-10T09:20:42;1.47;;;0.60;;
6412;SDS011;3239;48.714;9.472;2023-05-10T09:23:08;4.90;;;0.63;;
6412;SDS011;3239;48.714;9.472;2023-05-10T09:25:34;3.70;;;0.90;;
6412;SDS011;3239;48.714;9.472;2023-05-10T09:28:00;12.37;;;0.80;;
6412;SDS011;3239;48.714;9.472;2023-05-10T09:30:26;1.03;;;0.60;;
6412;SDS011;3239;48.714;9.472;2023-05-10T09:32:54;5.67;;;0.57;;
6412;SDS011;3239;48.714;9.472;2023-05-10T09:35:23;1.97;;;0.70;;
6412;SDS011;3239;48.714;9.472;2023-05-10T09:37:53;1.00;;;0.60;;
6412;SDS011;3239;48.714;9.472;2023-05-10T09:40:23;1.63;;;0.77;;
6412;SDS011;3239;48.714;9.472;2023-05-10T09:42:57;3.20;;;0.83;;
6412;SDS011;3239;48.714;9.472;2023-05-10T09:45:27;0.83;;;0.50;;
6412;SDS011;3239;48.714;9.472;2023-05-10T09:47:55;3.90;;;0.70;;
6412;SDS011;3239;48.714;9.472;2023-05-10T09:50:22;1.40;;;0.70;;
6412;SDS011;3239;48.714;9.472;2023-05-10T09:55:41;1.67;;;0.80;;
6412;SDS011;3239;48.714;9.472;2023-05-10T09:58:14;7.03;;;0.63;;
6412;SDS011;3239;48.714;9.472;2023-05-10T10:00:41;3.73;;;0.80;;
6412;SDS011;3239;48.714;9.472;2023-05-10T10:03:21;4.10;;;0.80;;
6412;SDS011;3239;48.714;9.472;2023-05-10T10:05:48;2.53;;;0.80;;
6412;SDS011;3239;48.714;9.472;2023-05-10T10:08:14;3.00;;;0.70;;
6412;SDS011;3239;48.714;9.472;2023-05-10T10:10:41;1.07;;;0.50;;
6412;SDS011;3239;48.714;9.472;2023-05-10T10:13:10;0.90;;;0.60;;
6412;SDS011;3239;48.714;9.472;2023-05-10T10:15:35;1.27;;;0.70;;
6412;SDS011;3239;48.714;9.472;2023-05-10T10:18:02;2.73;;;0.70;;
6412;SDS011;3239;48.714;9.472;2023-05-10T10:20:30;4.40;;;0.80;;
6412;SDS011;3239;48.714;9.472;2023-05-10T10:22:56;1.37;;;0.70;;
6412;SDS011;3239;48.714;9.472;2023-05-10T10:25:21;1.93;;;0.90;;
6412;SDS011;3239;48.714;9.472;2023-05-10T10:30:19;2.30;;;1.00;;
6412;SDS011;3239;48.714;9.472;2023-05-10T10:36:10;4.43;;;0.77;;
6412;SDS011;3239;48.714;9.472;2023-05-10T10:49:51;5.50;;;0.77;;
6412;SDS011;3239;48.714;9.472;2023-05-10T10:57:47;3.90;;;0.50;;
6412;SDS011;3239;48.714;9.472;2023-05-10T11:00:17;2.20;;;0.80;;
6412;SDS011;3239;48.714;9.472;2023-05-10T11:03:10;1.57;;;0.70;;
6412;SDS011;3239;48.714;9.472;2023-05-10T11:08:17;1.17;;;0.70;;
6412;SDS011;3239;48.714;9.472;2023-05-10T11:19:07;1.03;;;0.60;;
6412;SDS011;3239;48.714;9.472;2023-05-10T11:21:49;1.00;;;0.47;;
6412;SDS011;3239;48.714;9.472;2023-05-10T11:24:36;2.27;;;0.60;;
6412;SDS011;3239;48.714;9.472;2023-05-10T11:27:02;3.10;;;0.93;;
6412;SDS011;3239;48.714;9.472;2023-05-10T11:29:28;3.17;;;0.60;;
6412;SDS011;3239;48.714;9.472;2023-05-10T11:31:56;1.33;;;0.60;;
6412;SDS011;3239;48.714;9.472;2023-05-10T11:34:24;3.07;;;0.70;;
6412;SDS011;3239;48.714;9.472;2023-05-10T11:36:56;3.10;;;0.70;;
6412;SDS011;3239;48.714;9.472;2023-05-10T11:39:29;2.00;;;1.40;;
6412;SDS011;3239;48.714;9.472;2023-05-10T11:41:57;3.03;;;1.10;;
6412;SDS011;3239;48.714;9.472;2023-05-10T11:44:23;1.93;;;0.80;;
6412;SDS011;3239;48.714;9.472;2023-05-10T11:46:59;2.97;;;0.90;;
6412;SDS011;3239;48.714;9.472;2023-05-10T11:49:25;2.67;;;0.60;;
6412;SDS011;3239;48.714;9.472;2023-05-10T11:51:51;3.63;;;0.50;;
6412;SDS011;3239;48.714;9.472;2023-05-10T11:54:17;7.90;;;0.80;;
6412;SDS011;3239;48.714;9.472;2023-05-10T11:56:42;6.57;;;0.80;;
6412;SDS011;3239;48.714;9.472;2023-05-10T11:59:09;2.90;;;0.60;;
6412;SDS011;3239;48.714;9.472;2023-05-10T12:01:35;3.07;;;0.60;;
6412;SDS011;3239;48.714;9.472;2023-05-10T12:04:01;6.80;;;0.60;;
6412;SDS011;3239;48.714;9.472;2023-05-10T12:06:28;5.90;;;0.70;;
6412;SDS011;3239;48.714;9.472;2023-05-10T12:08:56;4.73;;;0.80;;
6412;SDS011;3239;48.714;9.472;2023-05-10T12:11:26;3.93;;;0.73;;
6412;SDS011;3239;48.714;9.472;2023-05-10T12:13:54;2.13;;;0.70;;
6412;SDS011;3239;48.714;9.472;2023-05-10T12:16:22;0.97;;;0.60;;
6412;SDS011;3239;48.714;9.472;2023-05-10T12:18:59;1.07;;;0.60;;
6412;SDS011;3239;48.714;9.472;2023-05-10T12:21:25;6.53;;;0.70;;
6412;SDS011;3239;48.714;9.472;2023-05-10T12:23:54;2.70;;;0.50;;
6412;SDS011;3239;48.714;9.472;2023-05-10T12:26:27;11.77;;;1.07;;
6412;SDS011;3239;48.714;9.472;2023-05-10T12:28:54;3.57;;;0.83;;
6412;SDS011;3239;48.714;9.472;2023-05-10T12:31:48;5.23;;;0.73;;
6412;SDS011;3239;48.714;9.472;2023-05-10T12:34:23;2.20;;;0.90;;
6412;SDS011;3239;48.714;9.472;2023-05-10T12:36:54;2.20;;;0.80;;
6412;SDS011;3239;48.714;9.472;2023-05-10T12:39:20;2.40;;;0.67;;
6412;SDS011;3239;48.714;9.472;2023-05-10T12:41:46;2.40;;;1.00;;
6412;SDS011;3239;48.714;9.472;2023-05-10T12:44:12;1.80;;;0.83;;
6412;SDS011;3239;48.714;9.472;2023-05-10T12:46:38;4.50;;;1.00;;
6412;SDS011;3239;48.714;9.472;2023-05-10T12:49:03;4.20;;;0.80;;
6412;SDS011;3239;48.714;9.472;2023-05-10T12:51:29;2.70;;;1.00;;
6412;SDS011;3239;48.714;9.472;2023-05-10T12:53:56;1.73;;;1.00;;
6412;SDS011;3239;48.714;9.472;2023-05-10T12:56:21;1.90;;;0.80;;
6412;SDS011;3239;48.714;9.472;2023-05-10T12:58:47;1.07;;;0.53;;
6412;SDS011;3239;48.714;9.472;2023-05-10T13:01:13;1.57;;;0.80;;
6412;SDS011;3239;48.714;9.472;2023-05-10T13:03:39;1.30;;;0.70;;
6412;SDS011;3239;48.714;9.472;2023-05-10T13:06:05;2.33;;;0.70;;
6412;SDS011;3239;48.714;9.472;2023-05-10T13:08:32;2.50;;;0.80;;
6412;SDS011;3239;48.714;9.472;2023-05-10T13:11:01;1.27;;;0.70;;
6412;SDS011;3239;48.714;9.472;2023-05-10T13:13:28;2.20;;;0.90;;
6412;SDS011;3239;48.714;9.472;2023-05-10T13:15:54;1.07;;;0.70;;
6412;SDS011;3239;48.714;9.472;2023-05-10T13:18:19;1.43;;;0.77;;
6412;SDS011;3239;48.714;9.472;2023-05-10T13:20:45;4.03;;;0.70;;
6412;SDS011;3239;48.714;9.472;2023-05-10T13:23:11;2.43;;;0.80;;
6412;SDS011;3239;48.714;9.472;2023-05-10T13:25:36;3.93;;;0.70;;
6412;SDS011;3239;48.714;9.472;2023-05-10T13:28:02;2.23;;;0.70;;
6412;SDS011;3239;48.714;9.472;2023-05-10T13:30:28;1.90;;;0.73;;
6412;SDS011;3239;48.714;9.472;2023-05-10T13:32:54;2.17;;;1.00;;
6412;SDS011;3239;48.714;9.472;2023-05-10T13:35:20;3.50;;;0.90;;
6412;SDS011;3239;48.714;9.472;2023-05-10T13:37:46;1.70;;;0.83;;
6412;SDS011;3239;48.714;9.472;2023-05-10T13:40:11;3.57;;;1.00;;
6412;SDS011;3239;48.714;9.472;2023-05-10T13:42:38;2.30;;;1.27;;
6412;SDS011;3239;48.714;9.472;2023-05-10T13:45:04;2.87;;;1.20;;
6412;SDS011;3239;48.714;9.472;2023-05-10T13:47:31;2.20;;;0.70;;
6412;SDS011;3239;48.714;9.472;2023-05-10T13:49:56;4.57;;;1.33;;
6412;SDS011;3239;48.714;9.472;2023-05-10T13:52:23;2.90;;;1.20;;
6412;SDS011;3239;48.714;9.472;2023-05-10T13:54:48;5.80;;;1.30;;
6412;SDS011;3239;48.714;9.472;2023-05-10T13:57:16;2.57;;;1.00;;
6412;SDS011;3239;48.714;9.472;2023-05-10T13:59:43;6.70;;;1.07;;
6412;SDS011;3239;48.714;9.472;2023-05-10T14:02:08;3.23;;;1.10;;
6412;SDS011;3239;48.714;9.472;2023-05-10T14:04:35;2.87;;;1.10;;
6412;SDS011;3239;48.714;9.472;2023-05-10T14:07:01;4.10;;;1.17;;
6412;SDS011;3239;48.714;9.472;2023-05-10T14:09:26;2.67;;;1.43;;
6412;SDS011;3239;48.714;9.472;2023-05-10T14:11:52;2.10;;;0.77;;
6412;SDS011;3239;48.714;9.472;2023-05-10T14:14:18;2.27;;;0.80;;
6412;SDS011;3239;48.714;9.472;2023-05-10T14:16:44;1.83;;;0.90;;
6412;SDS011;3239;48.714;9.472;2023-05-10T14:19:10;3.60;;;1.20;;
6412;SDS011;3239;48.714;9.472;2023-05-10T14:21:36;2.40;;;0.90;;
6412;SDS011;3239;48.714;9.472;2023-05-10T14:24:02;1.73;;;0.87;;
6412;SDS011;3239;48.714;9.472;2023-05-10T14:26:28;3.27;;;0.70;;
6412;SDS011;3239;48.714;9.472;2023-05-10T14:28:54;4.90;;;1.03;;
6412;SDS011;3239;48.714;9.472;2023-05-10T14:31:20;1.53;;;0.70;;
6412;SDS011;3239;48.714;9.472;2023-05-10T14:33:48;1.80;;;0.70;;
6412;SDS011;3239;48.714;9.472;2023-05-10T14:36:14;2.53;;;1.07;;
6412;SDS011;3239;48.714;9.472;2023-05-10T14:38:40;3.40;;;0.80;;
6412;SDS011;3239;48.714;9.472;2023-05-10T14:41:06;2.17;;;1.00;;
6412;SDS011;3239;48.714;9.472;2023-05-10T14:43:32;1.23;;;0.77;;
6412;SDS011;3239;48.714;9.472;2023-05-10T14:45:57;4.50;;;0.90;;
6412;SDS011;3239;48.714;9.472;2023-05-10T14:48:23;3.70;;;0.97;;
6412;SDS011;3239;48.714;9.472;2023-05-10T14:50:49;3.73;;;0.90;;
6412;SDS011;3239;48.714;9.472;2023-05-10T14:53:17;2.33;;;0.83;;
6412;SDS011;3239;48.714;9.472;2023-05-10T14:55:43;1.70;;;0.67;;
6412;SDS011;3239;48.714;9.472;2023-05-10T14:58:09;1.70;;;0.73;;
6412;SDS011;3239;48.714;9.472;2023-05-10T15:00:34;5.07;;;1.23;;
6412;SDS011;3239;48.714;9.472;2023-05-10T15:03:00;3.03;;;0.70;;
6412;SDS011;3239;48.714;9.472;2023-05-10T15:05:26;2.57;;;1.13;;
6412;SDS011;3239;48.714;9.472;2023-05-10T15:07:52;3.17;;;0.80;;
6412;SDS011;3239;48.714;9.472;2023-05-10T15:10:17;3.23;;;0.80;;
6412;SDS011;3239;48.714;9.472;2023-05-10T15:12:43;12.47;;;1.63;;
6412;SDS011;3239;48.714;9.472;2023-05-10T15:15:09;2.90;;;1.37;;
6412;SDS011;3239;48.714;9.472;2023-05-10T15:17:35;2.37;;;1.63;;
6412;SDS011;3239;48.714;9.472;2023-05-10T15:20:01;11.33;;;1.80;;
6412;SDS011;3239;48.714;9.472;2023-05-10T15:22:30;5.10;;;0.90;;
6412;SDS011;3239;48.714;9.472;2023-05-10T15:24:59;3.50;;;0.90;;
6412;SDS011;3239;48.714;9.472;2023-05-10T15:27:25;2.60;;;1.03;;
6412;SDS011;3239;48.714;9.472;2023-05-10T15:29:51;2.00;;;0.90;;
6412;SDS011;3239;48.714;9.472;2023-05-10T15:32:17;2.67;;;1.07;;
6412;SDS011;3239;48.714;9.472;2023-05-10T15:34:43;5.23;;;1.00;;
6412;SDS011;3239;48.714;9.472;2023-05-10T15:37:09;3.37;;;0.97;;
6412;SDS011;3239;48.714;9.472;2023-05-10T15:39:35;3.40;;;0.80;;
6412;SDS011;3239;48.714;9.472;2023-05-10T15:42:00;2.13;;;0.80;;
6412;SDS011;3239;48.714;9.472;2023-05-10T15:44:27;2.50;;;0.80;;
6412;SDS011;3239;48.714;9.472;2023-05-10T15:46:54;2.17;;;0.97;;
6412;SDS011;3239;48.714;9.472;2023-05-10T15:49:19;2.47;;;0.70;;
6412;SDS011;3239;48.714;9.472;2023-05-10T15:51:45;2.43;;;0.97;;
6412;SDS011;3239;48.714;9.472;2023-05-10T15:54:11;1.77;;;1.10;;
6412;SDS011;3239;48.714;9.472;2023-05-10T15:56:37;2.80;;;1.03;;
6412;SDS011;3239;48.714;9.472;2023-05-10T15:59:03;2.83;;;1.23;;
6412;SDS011;3239;48.714;9.472;2023-05-10T16:01:30;2.20;;;1.03;;
6412;SDS011;3239;48.714;9.472;2023-05-10T16:03:56;2.10;;;1.10;;
6412;SDS011;3239;48.714;9.472;2023-05-10T16:06:22;2.57;;;0.70;;
6412;SDS011;3239;48.714;9.472;2023-05-10T16:08:48;1.70;;;0.90;;